レシフェ の空港の天気 - METARとTAF

レシフェ・グアララペス国際空港 ( SBRF / REC ) - ブラジル ペルナンブーコ州レシフェ
飛行場実況気象(Metar)
観測時間07/29 00:00 BRT (07/29 03:00 UTC)
風向・風速南西 2m/s
視程10km以上
天気現象
全天の8割程度の雲 雲底高度 610m
気温23℃
湿度83%
気圧1015hPa
METARSBRF 290300Z 22003KT 9999 BKN020 23/20 Q1015
過去の天気等 Google飛行場航空写真 Wunderground天気予報

過去48時間のMETAR

飛行場予報(TAF)
発表時間: 7/28 17:40 BRT (7/28 20:40 UTC)
予報対象時間: 28日21時 BRT ~ 29日21時 BRT
風向・風速南南東 5m/s
視程10km以上
全天の4割程度の雲 雲底高度 610m
29日0時 BRT ~ 29日2時 BRT に徐々に
風向・風速南南西 4m/s
視程8000m
全天の4割程度の雲 雲底高度 370m
全天の8割程度の雲 雲底高度 610m
29日7時 BRT ~ 29日9時 BRT に徐々に
風向・風速南 5m/s
視程10km以上
全天の4割程度の雲 雲底高度 610m
29日10時 BRT ~ 29日12時 BRT に徐々に
風向・風速南東 5m/s
全天の4割程度の雲 雲底高度 760m
少しの塔状積雲 雲底高度 910m
29日19時 BRT ~ 29日21時 BRT に徐々に
風向・風速南南東 5m/s
全天の4割程度の雲 雲底高度 610m
TAF SBRF 282040Z 2900/2924 16010KT 9999 SCT020 TN21/2908Z TX28/2916Z
BECMG 2903/2905 21007KT 8000 SCT012 BKN020
BECMG 2910/2912 18010KT 9999 SCT020
BECMG 2913/2915 13010KT SCT025 FEW030TCU
BECMG 2922/2924 16010KT SCT020 RMK PGS